Time;durP1;ratioP1;P1;durP2;ratioP2;P2;SDS_P1;SDS_P2;PMS_P1;PMS_P2;Temp;Humidity;BMP_temperature;BMP_pressure;BME280_temperature;BME280_humidity;BME280_pressure;Samples;Min_cycle;Max_cycle;Signal;HPM_P1;HPM_P2
2023/08/27 00:00:52;;;;;;;16.92;8.20;;;25.20;99.90;;;;;;6280527;22;19999;-90
2023/08/27 00:03:18;;;;;;;21.70;10.32;;;25.10;99.90;;;;;;6281202;22;19999;-87
2023/08/27 00:05:44;;;;;;;15.30;8.77;;;25.10;99.90;;;;;;6281073;22;20007;-86
2023/08/27 00:08:11;;;;;;;17.33;9.32;;;25.00;99.90;;;;;;6280870;22;20011;-88
2023/08/27 00:10:36;;;;;;;16.52;8.63;;;24.90;99.90;;;;;;6281147;22;20003;-88
2023/08/27 00:13:03;;;;;;;20.27;8.48;;;24.80;99.90;;;;;;6281279;22;20006;-89
2023/08/27 00:15:28;;;;;;;17.30;8.75;;;24.80;99.90;;;;;;6280862;22;20522;-87
2023/08/27 00:17:54;;;;;;;24.67;9.77;;;24.70;99.90;;;;;;6281218;22;20000;-87
2023/08/27 00:20:20;;;;;;;21.17;9.38;;;24.70;99.90;;;;;;6280725;22;20335;-90
2023/08/27 00:22:46;;;;;;;19.05;8.32;;;24.60;99.90;;;;;;6281193;22;20046;-88
2023/08/27 00:25:12;;;;;;;18.63;8.25;;;24.60;99.90;;;;;;6281161;22;20000;-86
2023/08/27 00:27:38;;;;;;;19.88;9.30;;;24.60;99.90;;;;;;6280594;22;20014;-91
2023/08/27 00:30:05;;;;;;;20.73;11.10;;;24.50;99.90;;;;;;6281132;22;19996;-88
2023/08/27 00:32:34;;;;;;;19.55;10.32;;;24.50;99.90;;;;;;6281079;22;20010;-86
2023/08/27 00:35:03;;;;;;;27.13;9.90;;;24.40;99.90;;;;;;6281006;22;20011;-88
2023/08/27 00:37:29;;;;;;;17.42;9.45;;;24.30;99.90;;;;;;6281391;22;20328;-89
2023/08/27 00:39:55;;;;;;;20.70;9.43;;;24.30;99.90;;;;;;6281225;22;20002;-87
2023/08/27 00:42:21;;;;;;;22.85;10.23;;;;;;;;;;6280732;22;20034;-89
2023/08/27 00:44:47;;;;;;;17.85;10.02;;;24.30;99.90;;;;;;6281090;22;20068;-88
2023/08/27 00:47:15;;;;;;;19.45;9.13;;;24.30;99.90;;;;;;6280566;22;20423;-90
2023/08/27 00:49:42;;;;;;;18.30;10.50;;;24.30;99.90;;;;;;6280614;22;20007;-88
2023/08/27 00:52:09;;;;;;;18.35;9.32;;;24.20;99.90;;;;;;6281039;22;20003;-85
2023/08/27 00:54:35;;;;;;;19.30;9.45;;;24.30;99.90;;;;;;6280938;22;20045;-90
2023/08/27 00:57:05;;;;;;;18.30;9.57;;;24.30;99.90;;;;;;6280300;22;20011;-86
2023/08/27 00:59:31;;;;;;;15.88;9.40;;;24.30;99.90;;;;;;6281318;22;20010;-85
2023/08/27 01:01:57;;;;;;;21.52;9.93;;;24.30;99.90;;;;;;6281128;22;20000;-87
2023/08/27 01:04:23;;;;;;;24.40;8.85;;;24.40;99.90;;;;;;6280467;22;20460;-88
2023/08/27 01:06:50;;;;;;;20.63;9.57;;;24.30;99.90;;;;;;6281051;22;20014;-87
2023/08/27 01:09:27;;;;;;;20.85;9.02;;;24.20;99.90;;;;;;6282013;22;20003;-87
2023/08/27 01:11:57;;;;;;;16.67;8.60;;;24.20;99.90;;;;;;6283235;22;20423;-89
2023/08/27 01:14:24;;;;;;;16.83;9.60;;;24.10;99.90;;;;;;6282603;22;20438;-86
2023/08/27 01:16:51;;;;;;;18.70;9.48;;;24.00;99.90;;;;;;6282697;22;20018;-87
2023/08/27 01:19:17;;;;;;;18.98;10.38;;;23.90;99.90;;;;;;6283077;22;20000;-87
2023/08/27 01:21:44;;;;;;;21.38;9.90;;;23.80;99.90;;;;;;6282991;22;19999;-87
2023/08/27 01:24:10;;;;;;;18.80;9.70;;;23.70;99.90;;;;;;6282529;22;20453;-87
2023/08/27 01:26:52;;;;;;;16.23;9.27;;;23.70;99.90;;;;;;6257092;22;20010;-85
2023/08/27 01:29:18;;;;;;;20.88;9.40;;;23.60;99.90;;;;;;6282651;22;20003;-90
2023/08/27 01:31:52;;;;;;;24.42;9.93;;;23.60;99.90;;;;;;6282731;22;20007;-87
2023/08/27 01:34:21;;;;;;;19.13;9.45;;;23.70;99.90;;;;;;6282619;22;19996;-86
2023/08/27 01:36:48;;;;;;;18.35;8.98;;;23.70;99.90;;;;;;6282635;22;20362;-88
2023/08/27 01:39:14;;;;;;;14.93;8.93;;;23.70;99.90;;;;;;6281931;22;20000;-88
2023/08/27 01:41:40;;;;;;;18.58;8.77;;;23.50;99.90;;;;;;6282147;22;20027;-87
2023/08/27 01:44:06;;;;;;;17.60;9.23;;;23.40;99.90;;;;;;6282374;22;19996;-87
2023/08/27 01:46:32;;;;;;;18.33;9.55;;;23.40;99.90;;;;;;6282193;22;20010;-91
2023/08/27 01:48:58;;;;;;;19.25;9.57;;;;;;;;;;6282049;22;20027;-86
2023/08/27 01:51:24;;;;;;;19.55;10.23;;;23.30;99.90;;;;;;6282139;22;20035;-86
2023/08/27 01:53:50;;;;;;;17.35;10.43;;;23.40;99.90;;;;;;6282614;22;20327;-88
2023/08/27 01:56:16;;;;;;;18.10;9.93;;;22.60;99.90;;;;;;6282330;22;20435;-87
2023/08/27 01:58:42;;;;;;;18.48;10.18;;;23.20;99.90;;;;;;6282123;22;20006;-88
2023/08/27 02:01:08;;;;;;;21.98;10.75;;;;;;;;;;6282497;22;20007;-88
2023/08/27 02:03:33;;;;;;;19.70;11.20;;;23.20;99.90;;;;;;6282576;22;19999;-90
2023/08/27 02:05:59;;;;;;;23.10;10.32;;;23.20;99.90;;;;;;6281925;22;20030;-88
2023/08/27 02:08:25;;;;;;;17.98;10.20;;;23.20;99.90;;;;;;6282774;22;20053;-85
2023/08/27 02:10:51;;;;;;;24.30;8.93;;;;;;;;;;6282372;22;20383;-86
2023/08/27 02:13:17;;;;;;;14.55;9.05;;;;;;;;;;6309298;22;20048;-87
2023/08/27 02:15:43;;;;;;;17.23;9.10;;;22.70;99.90;;;;;;6282248;22;20319;-87
2023/08/27 02:18:09;;;;;;;16.58;9.13;;;23.30;99.90;;;;;;6282073;22;20004;-87
2023/08/27 02:20:35;;;;;;;22.27;9.15;;;23.30;99.90;;;;;;6281719;22;20005;-88
2023/08/27 02:23:01;;;;;;;15.70;9.50;;;23.40;99.90;;;;;;6282169;22;20003;-85
2023/08/27 02:25:27;;;;;;;24.40;9.27;;;23.40;99.90;;;;;;6282068;22;19999;-84
2023/08/27 02:27:52;;;;;;;20.42;9.57;;;23.40;99.90;;;;;;6281768;22;20323;-89
2023/08/27 02:30:18;;;;;;;20.88;9.98;;;23.40;99.90;;;;;;6282155;22;20029;-86
2023/08/27 02:32:45;;;;;;;23.98;10.52;;;23.40;99.90;;;;;;6282140;22;20052;-87
2023/08/27 02:35:11;;;;;;;21.65;10.82;;;23.40;99.90;;;;;;6281827;22;20098;-85
2023/08/27 02:37:36;;;;;;;17.88;9.68;;;23.30;99.90;;;;;;6309513;22;19995;-88
2023/08/27 02:40:03;;;;;;;17.95;9.88;;;23.20;99.90;;;;;;6281954;22;19996;-88
2023/08/27 02:42:28;;;;;;;25.35;9.60;;;23.10;99.90;;;;;;6281757;22;19999;-86
2023/08/27 02:44:54;;;;;;;25.35;10.30;;;23.10;99.90;;;;;;6282045;22;20021;-85
2023/08/27 02:47:20;;;;;;;21.67;10.35;;;23.10;99.90;;;;;;6308352;22;20335;-85
2023/08/27 02:49:46;;;;;;;23.23;9.98;;;23.10;99.90;;;;;;6282114;22;20412;-88
2023/08/27 02:52:11;;;;;;;18.38;10.32;;;23.10;99.90;;;;;;6281935;22;20066;-85
2023/08/27 02:54:37;;;;;;;25.25;10.38;;;23.10;99.90;;;;;;6281524;22;19999;-84
2023/08/27 02:57:03;;;;;;;17.98;9.82;;;23.00;99.90;;;;;;6281680;22;20003;-87
2023/08/27 02:59:29;;;;;;;23.65;10.95;;;23.00;99.90;;;;;;6281983;22;20004;-85
2023/08/27 03:01:55;;;;;;;19.08;10.48;;;22.90;99.90;;;;;;6281752;22;20305;-88
2023/08/27 03:04:21;;;;;;;23.67;11.25;;;22.90;99.90;;;;;;6281783;22;20002;-88
2023/08/27 03:06:47;;;;;;;23.00;10.70;;;22.90;99.90;;;;;;6281609;22;20014;-86
2023/08/27 03:09:13;;;;;;;20.65;10.48;;;22.80;99.90;;;;;;6281384;22;20007;-87
2023/08/27 03:11:38;;;;;;;19.00;10.88;;;22.90;99.90;;;;;;6281874;22;20038;-88
2023/08/27 03:14:04;;;;;;;23.92;10.88;;;22.80;99.90;;;;;;6281648;22;19995;-87
2023/08/27 03:16:30;;;;;;;19.60;11.13;;;22.70;99.90;;;;;;6281363;22;20033;-84
2023/08/27 03:18:58;;;;;;;18.77;10.85;;;22.70;99.90;;;;;;6281608;22;20006;-89
2023/08/27 03:21:32;;;;;;;19.90;10.60;;;23.70;99.90;;;;;;6281702;22;19999;-88
2023/08/27 03:24:46;;;;;;;;;;;;;;;;;;;;;
2023/08/27 03:27:26;;;;;;;20.20;11.50;;;22.60;99.90;;;;;;6309144;22;20078;-90
2023/08/27 03:33:44;;;;;;;24.65;12.85;;;22.50;99.90;;;;;;6154729;23;20456;-91
2023/08/27 03:36:10;;;;;;;23.77;13.15;;;21.20;99.90;;;;;;6129190;23;20005;-87
2023/08/27 03:38:36;;;;;;;30.13;13.07;;;22.50;99.90;;;;;;6129819;23;19998;-89
2023/08/27 03:41:02;;;;;;;23.88;12.13;;;22.60;99.90;;;;;;6129679;23;20006;-89
2023/08/27 03:44:01;;;;;;;;;;;;;;;;;;;;;
2023/08/27 03:46:37;;;;;;;;;;;;;;;;;;;;;
2023/08/27 03:49:13;;;;;;;18.63;11.55;;;22.30;99.90;;;;;;6061204;23;20139;-89
2023/08/27 03:51:39;;;;;;;23.75;11.73;;;22.10;99.90;;;;;;6042636;23;20007;-88
2023/08/27 03:54:14;;;;;;;24.58;11.32;;;22.00;99.90;;;;;;6042986;23;20006;-90
2023/08/27 03:56:40;;;;;;;27.42;12.00;;;22.50;99.90;;;;;;6043149;23;20097;-89
2023/08/27 03:59:06;;;;;;;23.85;11.60;;;21.80;99.90;;;;;;6042576;23;20105;-89
2023/08/27 04:01:32;;;;;;;26.83;12.45;;;21.80;99.90;;;;;;6043490;23;20007;-87
2023/08/27 04:03:58;;;;;;;21.80;12.48;;;21.70;99.90;;;;;;6042620;23;20026;-89
2023/08/27 04:06:26;;;;;;;27.52;12.23;;;21.80;99.90;;;;;;6042282;23;20355;-90
2023/08/27 04:09:04;;;;;;;22.58;12.00;;;21.70;99.90;;;;;;6079127;23;20460;-89
2023/08/27 04:11:30;;;;;;;24.10;11.95;;;21.80;99.90;;;;;;6188872;23;20421;-90
2023/08/27 04:13:56;;;;;;;18.63;11.60;;;21.80;99.90;;;;;;6188772;23;20446;-90
2023/08/27 04:16:24;;;;;;;22.35;12.73;;;21.90;99.90;;;;;;6188721;23;20008;-90
2023/08/27 04:19:02;;;;;;;23.10;11.93;;;21.90;99.90;;;;;;6188606;23;20004;-91
2023/08/27 04:21:40;;;;;;;20.40;12.07;;;21.90;99.90;;;;;;6196046;22;20001;-91
2023/08/27 04:24:15;;;;;;;22.15;12.48;;;21.90;99.90;;;;;;6281375;22;19999;-89
2023/08/27 04:26:41;;;;;;;23.48;12.55;;;21.90;99.90;;;;;;6281301;22;20060;-90
2023/08/27 04:29:07;;;;;;;30.10;13.35;;;21.80;99.90;;;;;;6281689;22;20319;-89
2023/08/27 04:31:33;;;;;;;21.67;12.23;;;21.80;99.90;;;;;;6281375;22;20003;-90
2023/08/27 04:34:02;;;;;;;21.60;12.77;;;21.80;99.90;;;;;;6281102;22;20004;-91
2023/08/27 04:36:28;;;;;;;22.88;12.05;;;21.90;99.90;;;;;;6281352;22;20082;-89
2023/08/27 04:39:07;;;;;;;22.88;12.13;;;21.90;99.90;;;;;;6281321;22;20034;-92
2023/08/27 04:45:58;;;;;;;;;;;;;;;;;;;;;
2023/08/27 04:49:25;;;;;;;20.42;12.02;;;22.00;99.90;;;;;;6306834;22;20395;-90
2023/08/27 04:52:18;;;;;;;;;;;;;;;;;;;;;
2023/08/27 04:54:52;;;;;;;20.70;11.70;;;22.20;99.90;;;;;;6156329;23;20081;-90
2023/08/27 05:00:20;;;;;;;30.88;11.77;;;22.40;99.90;;;;;;6097374;23;20082;-91
2023/08/27 05:03:03;;;;;;;25.38;12.52;;;22.50;99.90;;;;;;6073396;23;20482;-90
2023/08/27 05:06:01;;;;;;;25.67;12.57;;;22.60;99.90;;;;;;6073392;23;20093;-90
2023/08/27 05:09:05;;;;;;;21.85;12.52;;;22.80;99.90;;;;;;6066532;23;20338;-91
2023/08/27 05:11:34;;;;;;;24.08;11.55;;;22.80;99.90;;;;;;6072871;23;20449;-90
2023/08/27 09:48:35;;;;;;;276.10;159.82;;;;;;;;;;5102011;27;20336;-87
2023/08/27 09:51:07;;;;;;;220.38;150.93;;;;;;;;;;5082273;28;20029;-87
2023/08/27 09:53:34;;;;;;;73.78;47.97;;;;;;;;;;5075313;28;20545;-87
2023/08/27 09:56:02;;;;;;;155.27;100.10;;;;;;;;;;5089761;28;20467;-89
2023/08/27 09:58:29;;;;;;;1640.35;803.75;;;;;;;;;;5088930;28;20029;-89
2023/08/27 10:00:59;;;;;;;58.28;31.10;;;;;;;;;;5089106;28;20040;-86
2023/08/27 10:03:25;;;;;;;64.95;35.92;;;;;;;;;;5090798;28;20028;-88
2023/08/27 10:05:51;;;;;;;85.70;45.53;;;;;;;;;;5089551;28;20111;-85
2023/08/27 10:08:17;;;;;;;112.35;67.57;;;;;;;;;;5091122;28;20069;-89
2023/08/27 10:10:44;;;;;;;93.53;42.25;;;;;;;;;;5089708;28;20024;-90
2023/08/27 10:13:11;;;;;;;47.25;28.70;;;;;;;;;;5089397;28;20466;-88
2023/08/27 10:15:37;;;;;;;62.15;30.63;;;;;;;;;;5089038;28;20075;-87
2023/08/27 10:18:13;;;;;;;21.35;8.88;;;;;;;;;;5089675;28;20024;-84
2023/08/27 10:20:41;;;;;;;21.45;10.25;;;;;;;;;;5077390;28;20134;-83
2023/08/27 10:23:08;;;;;;;107.88;64.07;;;;;;;;;;5089354;28;20516;-86
2023/08/27 10:25:35;;;;;;;23.92;12.27;;;;;;;;;;5090661;28;20466;-85
2023/08/27 10:28:02;;;;;;;36.97;23.95;;;;;;;;;;5088916;28;20033;-84
2023/08/27 10:30:28;;;;;;;18.38;9.02;;;;;;;;;;5089409;28;20024;-85
2023/08/27 10:32:54;;;;;;;35.33;22.20;;;;;;;;;;5090108;28;20024;-83
2023/08/27 10:35:21;;;;;;;30.90;18.40;;;;;;;;;;5089190;28;20090;-85
2023/08/27 10:37:50;;;;;;;31.77;10.43;;;;;;;;;;5089281;28;20031;-85
2023/08/27 10:40:16;;;;;;;23.95;8.88;;;;;;;;;;5088961;28;20027;-85
2023/08/27 10:42:44;;;;;;;27.42;8.30;;;;;;;;;;5089143;28;20111;-85
2023/08/27 10:45:17;;;;;;;20.30;9.80;;;;;;;;;;5088929;28;20119;-86
2023/08/27 10:48:06;;;;;;;31.65;7.63;;;;;;;;;;5075001;28;20110;-84
2023/08/27 10:50:48;;;;;;;21.75;8.13;;;;;;;;;;5068939;28;20382;-86
2023/08/27 10:53:15;;;;;;;19.17;7.32;;;;;;;;;;5069773;28;20029;-85
2023/08/27 10:55:45;;;;;;;16.40;7.55;;;;;;;;;;5068208;28;20032;-86
2023/08/27 10:58:15;;;;;;;21.13;6.22;;;;;;;;;;5064607;28;20466;-84
2023/08/27 11:00:58;;;;;;;19.13;6.60;;;;;;;;;;5055018;28;20029;-85
2023/08/27 11:03:24;;;;;;;27.85;7.78;;;;;;;;;;5055148;28;20487;-85
2023/08/27 11:06:13;;;;;;;23.88;6.30;;;;;;;;;;5054971;28;20349;-84
2023/08/27 11:08:40;;;;;;;23.15;7.97;;;;;;;;;;5054205;28;20443;-85
2023/08/27 11:11:16;;;;;;;14.70;5.65;;;;;;;;;;5054003;28;20029;-84
2023/08/27 11:13:44;;;;;;;19.75;7.20;;;;;;;;;;5053608;28;20029;-84
2023/08/27 11:16:14;;;;;;;25.88;6.20;;;;;;;;;;5055884;28;20032;-83
2023/08/27 11:18:58;;;;;;;22.05;6.68;;;;;;;;;;5053604;28;20032;-85
2023/08/27 11:21:24;;;;;;;15.70;6.65;;;;;;;;;;5036749;28;20024;-82
2023/08/27 11:24:09;;;;;;;13.18;5.95;;;;;;;;;;5053169;28;20037;-84
2023/08/27 11:26:35;;;;;;;21.75;6.03;;;;;;;;;;5052271;28;20040;-84
2023/08/27 11:29:03;;;;;;;21.10;7.68;;;;;;;;;;5053202;28;20033;-85
2023/08/27 11:31:30;;;;;;;16.90;7.20;;;;;;;;;;5053423;28;20021;-85
2023/08/27 11:33:57;;;;;;;21.27;7.05;;;;;;;;;;5053463;28;20025;-84
2023/08/27 11:36:23;;;;;;;16.88;6.97;;;;;;;;;;5051502;28;20506;-83
2023/08/27 11:38:49;;;;;;;14.40;8.23;;;;;;;;;;5052246;28;20400;-83
2023/08/27 11:41:16;;;;;;;18.83;8.23;;;;;;;;;;5051839;28;20079;-80
2023/08/27 11:43:43;;;;;;;20.60;7.70;;;;;;;;;;5051831;28;20033;-81
2023/08/27 11:46:21;;;;;;;21.42;7.18;;;;;;;;;;5052862;28;20048;-83
2023/08/27 11:48:48;;;;;;;30.77;7.10;;;;;;;;;;5073414;28;20122;-85
2023/08/27 11:51:17;;;;;;;16.48;7.50;;;;;;;;;;5063678;28;20021;-85
2023/08/27 11:53:44;;;;;;;13.85;5.07;;;;;;;;;;5073376;28;20025;-84
2023/08/27 11:56:12;;;;;;;18.40;5.63;;;;;;;;;;5072806;28;20017;-85
2023/08/27 11:58:42;;;;;;;11.25;4.82;;;;;;;;;;5063314;28;20021;-84
2023/08/27 12:01:10;;;;;;;18.83;5.38;;;;;;;;;;5060956;28;20036;-84
2023/08/27 12:03:38;;;;;;;17.90;5.20;;;;;;;;;;5070278;28;20025;-85
2023/08/27 12:06:08;;;;;;;15.88;6.72;;;;;;;;;;5067060;28;20135;-84
2023/08/27 12:08:35;;;;;;;16.80;6.72;;;;;;;;;;5072514;28;20028;-85
2023/08/27 12:11:01;;;;;;;17.23;5.82;;;;;;;;;;5065696;28;20033;-81
2023/08/27 12:13:27;;;;;;;12.55;4.35;;;;;;;;;;5070248;28;20027;-85
2023/08/27 12:15:54;;;;;;;11.18;4.22;;;;;;;;;;5055726;28;20017;-83
2023/08/27 12:18:20;;;;;;;18.90;5.07;;;;;;;;;;5074328;28;20017;-85
2023/08/27 12:20:50;;;;;;;15.55;4.00;;;;;;;;;;5073609;28;20032;-82
2023/08/27 12:23:16;;;;;;;12.23;4.40;;;;;;;;;;5074545;28;20024;-83
2023/08/27 12:25:45;;;;;;;9.35;3.78;;;;;;;;;;5066340;28;20058;-83
2023/08/27 12:28:11;;;;;;;19.58;4.43;;;;;;;;;;5064211;28;20356;-86
2023/08/27 12:30:38;;;;;;;9.75;3.33;;;;;;;;;;5066715;28;20025;-83
2023/08/27 12:33:05;;;;;;;15.25;4.82;;;;;;;;;;5056900;28;20413;-85
2023/08/27 12:35:31;;;;;;;18.42;4.40;;;;;;;;;;5073279;28;20115;-83
2023/08/27 12:37:57;;;;;;;10.73;3.58;;;;;;;;;;5072985;28;20051;-83
2023/08/27 12:40:23;;;;;;;9.45;3.10;;;;;;;;;;5074220;28;20028;-86
2023/08/27 12:42:49;;;;;;;18.73;3.80;;;;;;;;;;5072228;28;20071;-82
2023/08/27 12:45:16;;;;;;;10.40;3.60;;;;;;;;;;5073989;28;20021;-83
2023/08/27 12:47:42;;;;;;;12.60;3.60;;;;;;;;;;5082171;28;20552;-84
2023/08/27 12:50:09;;;;;;;15.18;4.10;;;;;;;;;;5089743;28;20032;-83
2023/08/27 12:52:35;;;;;;;14.77;3.67;;;;;;;;;;5089765;28;20040;-83
2023/08/27 12:55:02;;;;;;;15.85;3.90;;;;;;;;;;5073681;28;20025;-82
2023/08/27 12:57:28;;;;;;;18.00;4.18;;;;;;;;;;5073811;28;20382;-82
2023/08/27 12:59:54;;;;;;;11.65;3.47;;;;;;;;;;5073663;28;20025;-82
2023/08/27 13:02:20;;;;;;;14.05;3.10;;;;;;;;;;5088337;28;20074;-82
2023/08/27 13:04:47;;;;;;;12.68;3.78;;;;;;;;;;5089331;28;20027;-84
2023/08/27 13:07:13;;;;;;;13.88;3.13;;;;;;;;;;5089100;28;20028;-83
2023/08/27 13:09:39;;;;;;;14.18;2.92;;;;;;;;;;5074079;28;20115;-82
2023/08/27 13:12:06;;;;;;;11.52;3.22;;;;;;;;;;5089354;28;20032;-83
2023/08/27 13:14:32;;;;;;;16.00;3.80;;;;;;;;;;5086767;28;20115;-83
2023/08/27 13:16:58;;;;;;;10.63;3.25;;;;;;;;;;5073781;28;20028;-85
2023/08/27 13:19:24;;;;;;;17.58;3.17;;;;;;;;;;5072483;28;20021;-81
2023/08/27 13:21:51;;;;;;;14.18;3.35;;;;;;;;;;5073115;28;20024;-85
2023/08/27 13:24:17;;;;;;;14.00;3.72;;;;;;;;;;5088814;28;20033;-84
2023/08/27 13:26:43;;;;;;;12.48;3.42;;;;;;;;;;5089269;28;20036;-84
2023/08/27 13:29:09;;;;;;;10.07;3.20;;;;;;;;;;5088848;28;20028;-82
2023/08/27 13:31:35;;;;;;;11.60;3.17;;;;;;;;;;5089236;28;20047;-85
2023/08/27 13:34:02;;;;;;;13.38;3.63;;;;;;;;;;5073302;28;20043;-83
2023/08/27 13:36:28;;;;;;;12.15;2.92;;;;;;;;;;5073240;28;20020;-84
2023/08/27 13:38:54;;;;;;;15.38;3.65;;;;;;;;;;5089082;28;20024;-82
2023/08/27 13:41:21;;;;;;;8.90;3.00;;;;;;;;;;5089066;28;20032;-83
2023/08/27 13:43:47;;;;;;;18.40;3.50;;;;;;;;;;5072843;28;20066;-85
2023/08/27 13:46:13;;;;;;;18.13;3.50;;;;;;;;;;5073697;28;20091;-81
2023/08/27 13:48:40;;;;;;;10.57;2.75;;;;;;;;;;5092046;28;20043;-82
2023/08/27 13:51:06;;;;;;;18.55;3.53;;;;;;;;;;5093627;28;20489;-83
2023/08/27 13:53:32;;;;;;;13.80;3.83;;;;;;;;;;5093652;28;20028;-85
2023/08/27 13:55:58;;;;;;;9.75;3.08;;;;;;;;;;5091954;28;20038;-85
2023/08/27 13:58:25;;;;;;;11.63;3.67;;;;;;;;;;5092102;28;20035;-84
2023/08/27 14:00:51;;;;;;;16.20;2.88;;;;;;;;;;5093449;28;20024;-84
2023/08/27 14:03:17;;;;;;;15.48;3.17;;;;;;;;;;5093203;28;20031;-81
2023/08/27 14:05:44;;;;;;;11.20;3.13;;;;;;;;;;5092156;28;20070;-83
2023/08/27 14:08:10;;;;;;;15.52;2.80;;;;;;;;;;5092102;28;20115;-82
2023/08/27 14:10:39;;;;;;;15.07;3.25;;;;;;;;;;5073303;28;20033;-85
2023/08/27 14:13:06;;;;;;;18.63;4.32;;;;;;;;;;5071992;28;20031;-84
2023/08/27 14:15:32;;;;;;;11.02;2.90;;;;;;;;;;5071847;28;20021;-84
2023/08/27 14:17:58;;;;;;;15.90;4.60;;;;;;;;;;5068801;28;20028;-85
2023/08/27 14:20:24;;;;;;;16.42;3.15;;;;;;;;;;5074863;28;20032;-83
2023/08/27 14:22:50;;;;;;;13.60;3.72;;;;;;;;;;5075224;28;20017;-83
2023/08/27 14:25:17;;;;;;;11.32;3.58;;;;;;;;;;5074818;28;20024;-85
2023/08/27 14:27:43;;;;;;;11.45;3.20;;;;;;;;;;5074958;28;20032;-84
2023/08/27 14:30:09;;;;;;;12.27;2.63;;;;;;;;;;5075195;28;20032;-85
2023/08/27 14:32:35;;;;;;;11.77;3.03;;;;;;;;;;5074704;28;20024;-83
2023/08/27 14:35:01;;;;;;;12.23;3.58;;;;;;;;;;5078082;28;20032;-84
2023/08/27 14:37:28;;;;;;;10.10;2.47;;;;;;;;;;5078844;28;20027;-83
2023/08/27 14:39:54;;;;;;;9.98;2.53;;;;;;;;;;5096583;28;20086;-85
2023/08/27 14:42:20;;;;;;;13.68;2.40;;;;;;;;;;5078683;28;20027;-83
2023/08/27 14:44:46;;;;;;;9.68;2.33;;;;;;;;;;5096550;28;20461;-84
2023/08/27 14:47:12;;;;;;;15.18;2.97;;;;;;;;;;5096225;28;20123;-83
2023/08/27 14:49:39;;;;;;;8.30;2.38;;;;;;;;;;5096655;28;20059;-84
2023/08/27 14:52:05;;;;;;;14.85;3.63;;;;;;;;;;5078127;28;20026;-83
2023/08/27 14:54:31;;;;;;;13.73;2.95;;;;;;;;;;5078449;28;20024;-84
2023/08/27 14:56:57;;;;;;;15.50;4.43;;;;;;;;;;5078337;28;20031;-83
2023/08/27 14:59:31;;;;;;;14.82;3.60;;;;;;;;;;5095983;28;20024;-84
2023/08/27 15:01:57;;;;;;;15.43;3.30;;;;;;;;;;5078230;28;20024;-84
2023/08/27 15:04:23;;;;;;;11.50;3.25;;;;;;;;;;5078212;28;20039;-82
2023/08/27 15:06:49;;;;;;;19.83;4.30;;;;;;;;;;5096142;28;20085;-83
2023/08/27 15:09:15;;;;;;;12.27;2.88;;;;;;;;;;5078315;28;20032;-82
2023/08/27 15:11:41;;;;;;;15.98;3.80;;;;;;;;;;5076466;28;20038;-84
2023/08/27 15:14:07;;;;;;;9.98;2.63;;;;;;;;;;5074458;28;20374;-84
2023/08/27 15:16:34;;;;;;;10.15;2.90;;;;;;;;;;5088252;28;20373;-83
2023/08/27 15:19:00;;;;;;;8.90;2.53;;;;;;;;;;5096210;28;20481;-84
2023/08/27 15:21:26;;;;;;;8.38;2.30;;;;;;;;;;5077673;28;20400;-85
2023/08/27 15:23:52;;;;;;;14.38;3.22;;;;;;;;;;5095975;28;20458;-84
2023/08/27 15:26:18;;;;;;;13.00;2.40;;;;;;;;;;5077940;28;20466;-83
2023/08/27 15:28:44;;;;;;;20.90;2.95;;;;;;;;;;5077640;28;20473;-83
2023/08/27 15:31:10;;;;;;;6.28;2.20;;;;;;;;;;5095684;28;20026;-85
2023/08/27 15:33:37;;;;;;;12.75;2.45;;;;;;;;;;5077542;28;20035;-85
2023/08/27 15:36:03;;;;;;;10.68;2.55;;;;;;;;;;5077765;28;20092;-85
2023/08/27 15:38:29;;;;;;;11.10;2.95;;;;;;;;;;5077682;28;20036;-85
2023/08/27 15:40:55;;;;;;;7.05;2.63;;;;;;;;;;5095255;28;20612;-84
2023/08/27 15:43:30;;;;;;;15.07;2.88;;;;;;;;;;5077713;28;20488;-83
2023/08/27 15:45:56;;;;;;;10.48;2.45;;;;;;;;;;5094750;28;20027;-83
2023/08/27 15:48:23;;;;;;;12.48;2.63;;;;;;;;;;5094860;28;20094;-83
2023/08/27 15:50:49;;;;;;;40.75;4.75;;;;;;;;;;5095950;28;20039;-85
2023/08/27 15:53:15;;;;;;;13.88;3.15;;;;;;;;;;5094326;28;20050;-85
2023/08/27 15:55:41;;;;;;;11.70;4.35;;;;;;;;;;5093960;28;20032;-86
2023/08/27 15:58:08;;;;;;;21.73;4.55;;;;;;;;;;5094173;28;20032;-84
2023/08/27 16:00:37;;;;;;;49.63;5.97;;;;;;;;;;5094173;28;20064;-85
2023/08/27 16:03:07;;;;;;;19.70;4.93;;;;;;;;;;5093827;28;20020;-85
2023/08/27 16:05:33;;;;;;;17.92;3.97;;;;;;;;;;5095238;28;20024;-85
2023/08/27 16:08:00;;;;;;;18.63;5.20;;;;;;;;;;5094156;28;20024;-87
2023/08/27 16:10:28;;;;;;;23.63;8.55;;;;;;;;;;5076378;28;20048;-85
2023/08/27 16:12:54;;;;;;;12.05;5.22;;;;;;;;;;5073666;28;20032;-86
2023/08/27 16:15:20;;;;;;;15.25;6.60;;;;;;;;;;5070718;28;20027;-85
2023/08/27 16:17:47;;;;;;;19.88;7.50;;;;;;;;;;5094668;28;20103;-84
2023/08/27 16:20:15;;;;;;;20.20;7.18;;;;;;;;;;5088938;28;20024;-84
2023/08/27 16:22:42;;;;;;;11.27;5.20;;;;;;;;;;5076467;28;20056;-86
2023/08/27 16:25:09;;;;;;;12.57;5.07;;;;;;;;;;5076656;28;20484;-85
2023/08/27 16:27:36;;;;;;;15.30;5.07;;;;;;;;;;5094929;28;20536;-85
2023/08/27 16:30:02;;;;;;;13.15;5.90;;;;;;;;;;5076386;28;20028;-84
2023/08/27 16:32:28;;;;;;;48.30;28.15;;;;;;;;;;5076547;28;20484;-84
2023/08/27 16:34:55;;;;;;;13.00;6.05;;;;;;;;;;5076546;28;20039;-85
2023/08/27 16:37:21;;;;;;;10.02;5.63;;;;;;;;;;5093315;28;20034;-84
2023/08/27 16:39:47;;;;;;;11.90;4.88;;;;;;;;;;5093498;28;20031;-86
2023/08/27 16:42:13;;;;;;;10.98;5.47;;;;;;;;;;5093344;28;20073;-86
2023/08/27 16:44:39;;;;;;;11.10;5.85;;;;;;;;;;5093089;28;20080;-85
2023/08/27 16:47:05;;;;;;;14.55;4.97;;;;;;;;;;5093048;28;20048;-89
2023/08/27 16:49:32;;;;;;;10.23;5.10;;;;;;;;;;5076396;28;20032;-87
2023/08/27 16:51:58;;;;;;;8.02;5.45;;;;;;;;;;5072604;28;20031;-86
2023/08/27 16:54:24;;;;;;;14.80;6.72;;;;;;;;;;5066989;28;20020;-87
2023/08/27 16:56:50;;;;;;;14.70;6.90;;;;;;;;;;5076100;28;20416;-88
2023/08/27 16:59:17;;;;;;;12.05;5.88;;;;;;;;;;5076029;28;20031;-87
2023/08/27 17:01:43;;;;;;;14.63;6.85;;;;;;;;;;5076298;28;20024;-87
2023/08/27 17:04:09;;;;;;;12.07;5.88;;;;;;;;;;5076152;28;20024;-86
2023/08/27 17:06:35;;;;;;;12.38;6.90;;;;;;;;;;5075799;28;20028;-85
2023/08/27 17:09:01;;;;;;;15.73;9.13;;;;;;;;;;5093789;28;20051;-85
2023/08/27 17:11:27;;;;;;;17.77;9.80;;;;;;;;;;5080054;28;20024;-85
2023/08/27 17:13:53;;;;;;;13.50;8.20;;;;;;;;;;5083183;28;20034;-85
2023/08/27 17:16:19;;;;;;;17.05;8.40;;;;;;;;;;5076113;28;20099;-85
2023/08/27 17:18:46;;;;;;;12.25;8.02;;;;;;;;;;5075605;28;20111;-86
2023/08/27 17:21:12;;;;;;;15.20;7.93;;;;;;;;;;5075169;28;20027;-87
2023/08/27 17:23:38;;;;;;;14.50;9.60;;;;;;;;;;5055868;28;20032;-85
2023/08/27 17:26:04;;;;;;;22.50;12.75;;;;;;;;;;5073392;28;20028;-88
2023/08/27 17:28:33;;;;;;;21.42;13.05;;;;;;;;;;5075843;28;20493;-88
2023/08/27 17:30:59;;;;;;;20.90;12.07;;;;;;;;;;5075897;28;20142;-87
2023/08/27 17:33:26;;;;;;;20.88;12.05;;;;;;;;;;5075362;28;20035;-86
2023/08/27 17:35:52;;;;;;;21.48;8.73;;;;;;;;;;5075768;28;20058;-86
2023/08/27 17:38:18;;;;;;;16.15;8.52;;;;;;;;;;5075668;28;20032;-87
2023/08/27 17:40:44;;;;;;;18.13;8.35;;;;;;;;;;5075357;28;20020;-86
2023/08/27 17:43:10;;;;;;;12.27;8.07;;;;;;;;;;5075816;28;20110;-85
2023/08/27 17:45:37;;;;;;;27.73;14.57;;;;;;;;;;5075473;28;20393;-85
2023/08/27 17:48:11;;;;;;;29.67;15.32;;;;;;;;;;5075077;28;20052;-86
2023/08/27 17:50:38;;;;;;;17.42;11.48;;;;;;;;;;5075784;28;20385;-87
2023/08/27 17:53:05;;;;;;;18.45;10.48;;;;;;;;;;5075652;28;20024;-88
2023/08/27 17:55:32;;;;;;;27.40;15.18;;;;;;;;;;5092708;28;20029;-87
2023/08/27 17:57:59;;;;;;;18.77;10.80;;;;;;;;;;5075255;28;20073;-87
2023/08/27 18:00:25;;;;;;;16.25;9.52;;;;;;;;;;5075582;28;20028;-89
2023/08/27 18:02:53;;;;;;;24.23;10.77;;;;;;;;;;5092371;28;20016;-88
2023/08/27 18:05:19;;;;;;;31.02;14.75;;;;;;;;;;5075461;28;20024;-86
2023/08/27 18:07:46;;;;;;;23.10;13.15;;;;;;;;;;5075253;28;20131;-88
2023/08/27 18:10:12;;;;;;;23.80;12.98;;;;;;;;;;5078299;28;20031;-88
2023/08/27 18:12:39;;;;;;;14.82;10.32;;;;;;;;;;5078869;28;20028;-87
2023/08/27 18:15:06;;;;;;;21.60;10.75;;;;;;;;;;5072324;28;20021;-86
2023/08/27 18:17:32;;;;;;;23.77;11.55;;;;;;;;;;5069570;28;20036;-87
2023/08/27 18:19:58;;;;;;;25.10;12.68;;;;;;;;;;5070558;28;20453;-87
2023/08/27 18:22:25;;;;;;;27.92;12.32;;;;;;;;;;5079197;28;20028;-85
2023/08/27 18:24:51;;;;;;;28.27;13.18;;;;;;;;;;5075761;28;20012;-88
2023/08/27 18:27:17;;;;;;;20.65;10.30;;;;;;;;;;5072052;28;20040;-88
2023/08/27 18:29:43;;;;;;;22.42;11.73;;;;;;;;;;5078200;28;20039;-86
2023/08/27 18:32:11;;;;;;;37.70;15.32;;;;;;;;;;5072696;28;20031;-87
2023/08/27 18:34:37;;;;;;;27.33;13.02;;;;;;;;;;5077387;28;20030;-88
2023/08/27 18:37:03;;;;;;;20.08;10.10;;;;;;;;;;5073083;28;20059;-87
2023/08/27 18:39:30;;;;;;;16.55;7.43;;;;;;;;;;5078808;28;20377;-87